sensor_id;sensor_type;location;lat;lon;timestamp;temperature;humidity
26262;DHT22;13988;52.446;13.280;2023-07-13T00:01:29;18.40;99.90
26262;DHT22;13988;52.446;13.280;2023-07-13T00:03:56;18.30;99.90
26262;DHT22;13988;52.446;13.280;2023-07-13T00:06:22;18.40;99.90
26262;DHT22;13988;52.446;13.280;2023-07-13T00:08:48;18.40;99.90
26262;DHT22;13988;52.446;13.280;2023-07-13T00:11:18;18.40;99.90
26262;DHT22;13988;52.446;13.280;2023-07-13T00:13:44;18.40;99.90
26262;DHT22;13988;52.446;13.280;2023-07-13T00:16:10;18.40;99.90
26262;DHT22;13988;52.446;13.280;2023-07-13T00:18:37;18.40;99.90
26262;DHT22;13988;52.446;13.280;2023-07-13T00:21:03;18.30;99.90
26262;DHT22;13988;52.446;13.280;2023-07-13T00:23:38;18.40;99.90
26262;DHT22;13988;52.446;13.280;2023-07-13T00:26:05;18.40;99.90
26262;DHT22;13988;52.446;13.280;2023-07-13T00:28:31;18.30;99.90
26262;DHT22;13988;52.446;13.280;2023-07-13T00:30:57;18.30;99.90
26262;DHT22;13988;52.446;13.280;2023-07-13T00:33:23;18.20;99.90
26262;DHT22;13988;52.446;13.280;2023-07-13T00:35:49;18.20;99.90
26262;DHT22;13988;52.446;13.280;2023-07-13T00:38:15;18.30;99.90
26262;DHT22;13988;52.446;13.280;2023-07-13T00:40:41;18.30;99.90
26262;DHT22;13988;52.446;13.280;2023-07-13T00:43:21;17.90;99.90
26262;DHT22;13988;52.446;13.280;2023-07-13T00:48:15;17.70;99.90
26262;DHT22;13988;52.446;13.280;2023-07-13T00:50:44;17.80;99.90
26262;DHT22;13988;52.446;13.280;2023-07-13T00:53:10;17.90;99.90
26262;DHT22;13988;52.446;13.280;2023-07-13T00:55:38;17.90;99.90
26262;DHT22;13988;52.446;13.280;2023-07-13T00:58:05;17.70;99.90
26262;DHT22;13988;52.446;13.280;2023-07-13T01:00:36;17.50;99.90
26262;DHT22;13988;52.446;13.280;2023-07-13T01:03:03;17.60;99.90
26262;DHT22;13988;52.446;13.280;2023-07-13T01:05:31;17.70;99.90
26262;DHT22;13988;52.446;13.280;2023-07-13T01:07:57;17.50;99.90
26262;DHT22;13988;52.446;13.280;2023-07-13T01:10:23;17.40;99.90
26262;DHT22;13988;52.446;13.280;2023-07-13T01:12:49;17.50;99.90
26262;DHT22;13988;52.446;13.280;2023-07-13T01:15:35;17.50;99.90
26262;DHT22;13988;52.446;13.280;2023-07-13T01:18:01;17.60;99.90
26262;DHT22;13988;52.446;13.280;2023-07-13T01:20:27;17.40;99.90
26262;DHT22;13988;52.446;13.280;2023-07-13T01:22:53;17.40;99.90
26262;DHT22;13988;52.446;13.280;2023-07-13T01:25:20;17.30;99.90
26262;DHT22;13988;52.446;13.280;2023-07-13T01:27:45;17.30;99.90
26262;DHT22;13988;52.446;13.280;2023-07-13T01:30:11;17.20;99.90
26262;DHT22;13988;52.446;13.280;2023-07-13T01:32:37;17.10;99.90
26262;DHT22;13988;52.446;13.280;2023-07-13T01:35:03;17.10;99.90
26262;DHT22;13988;52.446;13.280;2023-07-13T01:37:29;17.10;99.90
26262;DHT22;13988;52.446;13.280;2023-07-13T01:39:59;17.10;99.90
26262;DHT22;13988;52.446;13.280;2023-07-13T01:42:25;17.00;99.90
26262;DHT22;13988;52.446;13.280;2023-07-13T01:44:51;16.90;99.90
26262;DHT22;13988;52.446;13.280;2023-07-13T01:47:16;16.80;99.90
26262;DHT22;13988;52.446;13.280;2023-07-13T01:49:42;16.70;99.90
26262;DHT22;13988;52.446;13.280;2023-07-13T01:52:08;16.70;99.90
26262;DHT22;13988;52.446;13.280;2023-07-13T01:54:33;16.90;99.90
26262;DHT22;13988;52.446;13.280;2023-07-13T01:56:59;17.00;99.90
26262;DHT22;13988;52.446;13.280;2023-07-13T01:59:25;17.00;99.90
26262;DHT22;13988;52.446;13.280;2023-07-13T02:01:51;17.10;99.90
26262;DHT22;13988;52.446;13.280;2023-07-13T02:04:16;16.90;99.90
26262;DHT22;13988;52.446;13.280;2023-07-13T02:06:42;16.90;99.90
26262;DHT22;13988;52.446;13.280;2023-07-13T02:09:08;16.90;99.90
26262;DHT22;13988;52.446;13.280;2023-07-13T02:11:33;16.70;99.90
26262;DHT22;13988;52.446;13.280;2023-07-13T02:14:00;16.60;99.90
26262;DHT22;13988;52.446;13.280;2023-07-13T02:16:27;16.60;99.90
26262;DHT22;13988;52.446;13.280;2023-07-13T02:18:53;16.70;99.90
26262;DHT22;13988;52.446;13.280;2023-07-13T02:21:18;16.60;99.90
26262;DHT22;13988;52.446;13.280;2023-07-13T02:23:44;16.40;99.90
26262;DHT22;13988;52.446;13.280;2023-07-13T02:26:10;16.50;99.90
26262;DHT22;13988;52.446;13.280;2023-07-13T02:28:35;16.50;99.90
26262;DHT22;13988;52.446;13.280;2023-07-13T02:31:14;16.50;99.90
26262;DHT22;13988;52.446;13.280;2023-07-13T02:33:39;16.60;99.90
26262;DHT22;13988;52.446;13.280;2023-07-13T02:36:06;16.70;99.90
26262;DHT22;13988;52.446;13.280;2023-07-13T02:38:32;16.70;99.90
26262;DHT22;13988;52.446;13.280;2023-07-13T02:41:06;16.60;99.90
26262;DHT22;13988;52.446;13.280;2023-07-13T02:43:32;16.60;99.90
26262;DHT22;13988;52.446;13.280;2023-07-13T02:45:59;16.60;99.90
26262;DHT22;13988;52.446;13.280;2023-07-13T02:48:29;16.60;99.90
26262;DHT22;13988;52.446;13.280;2023-07-13T02:50:55;16.50;99.90
26262;DHT22;13988;52.446;13.280;2023-07-13T02:53:21;16.50;99.90
26262;DHT22;13988;52.446;13.280;2023-07-13T02:55:46;16.40;99.90
26262;DHT22;13988;52.446;13.280;2023-07-13T02:58:13;16.30;99.90
26262;DHT22;13988;52.446;13.280;2023-07-13T03:00:42;16.40;99.90
26262;DHT22;13988;52.446;13.280;2023-07-13T03:03:08;16.40;99.90
26262;DHT22;13988;52.446;13.280;2023-07-13T03:05:34;16.30;99.90
26262;DHT22;13988;52.446;13.280;2023-07-13T03:07:59;16.40;99.90
26262;DHT22;13988;52.446;13.280;2023-07-13T03:10:25;16.40;99.90
26262;DHT22;13988;52.446;13.280;2023-07-13T03:12:51;16.40;99.90
26262;DHT22;13988;52.446;13.280;2023-07-13T03:15:16;16.20;99.90
26262;DHT22;13988;52.446;13.280;2023-07-13T03:17:42;16.30;99.90
26262;DHT22;13988;52.446;13.280;2023-07-13T03:20:08;16.30;99.90
26262;DHT22;13988;52.446;13.280;2023-07-13T03:22:33;16.30;99.90
26262;DHT22;13988;52.446;13.280;2023-07-13T03:24:59;16.50;99.90
26262;DHT22;13988;52.446;13.280;2023-07-13T03:27:25;16.60;99.90
26262;DHT22;13988;52.446;13.280;2023-07-13T03:29:50;16.60;99.90
26262;DHT22;13988;52.446;13.280;2023-07-13T03:32:16;16.60;99.90
26262;DHT22;13988;52.446;13.280;2023-07-13T03:34:41;16.70;99.90
26262;DHT22;13988;52.446;13.280;2023-07-13T03:37:07;16.70;99.90
26262;DHT22;13988;52.446;13.280;2023-07-13T03:39:33;16.70;99.90
26262;DHT22;13988;52.446;13.280;2023-07-13T03:41:58;16.80;99.90
26262;DHT22;13988;52.446;13.280;2023-07-13T03:44:24;16.80;99.90
26262;DHT22;13988;52.446;13.280;2023-07-13T03:46:50;16.70;99.90
26262;DHT22;13988;52.446;13.280;2023-07-13T03:49:15;16.70;99.90
26262;DHT22;13988;52.446;13.280;2023-07-13T03:51:41;16.70;99.90
26262;DHT22;13988;52.446;13.280;2023-07-13T03:54:07;16.60;99.90
26262;DHT22;13988;52.446;13.280;2023-07-13T03:56:32;16.60;99.90
26262;DHT22;13988;52.446;13.280;2023-07-13T03:58:59;16.60;99.90
26262;DHT22;13988;52.446;13.280;2023-07-13T04:01:25;16.70;99.90
26262;DHT22;13988;52.446;13.280;2023-07-13T04:03:52;16.80;99.90
26262;DHT22;13988;52.446;13.280;2023-07-13T04:06:28;16.90;99.90
26262;DHT22;13988;52.446;13.280;2023-07-13T04:08:57;17.00;99.90
26262;DHT22;13988;52.446;13.280;2023-07-13T04:11:25;17.10;99.90
26262;DHT22;13988;52.446;13.280;2023-07-13T04:13:51;17.10;99.90
26262;DHT22;13988;52.446;13.280;2023-07-13T04:16:17;17.10;99.90
26262;DHT22;13988;52.446;13.280;2023-07-13T04:18:44;17.10;99.90
26262;DHT22;13988;52.446;13.280;2023-07-13T04:21:10;17.10;99.90
26262;DHT22;13988;52.446;13.280;2023-07-13T04:23:36;17.20;99.90
26262;DHT22;13988;52.446;13.280;2023-07-13T04:26:02;17.10;99.90
26262;DHT22;13988;52.446;13.280;2023-07-13T04:28:28;17.00;99.90
26262;DHT22;13988;52.446;13.280;2023-07-13T04:30:54;16.90;99.90
26262;DHT22;13988;52.446;13.280;2023-07-13T04:33:20;16.90;99.90
26262;DHT22;13988;52.446;13.280;2023-07-13T04:35:53;17.00;99.90
26262;DHT22;13988;52.446;13.280;2023-07-13T04:38:27;17.10;99.90
26262;DHT22;13988;52.446;13.280;2023-07-13T04:40:55;17.10;99.90
26262;DHT22;13988;52.446;13.280;2023-07-13T04:43:21;17.10;99.90
26262;DHT22;13988;52.446;13.280;2023-07-13T04:45:47;17.20;99.90
26262;DHT22;13988;52.446;13.280;2023-07-13T04:48:13;17.30;99.90
26262;DHT22;13988;52.446;13.280;2023-07-13T04:50:38;17.40;99.90
26262;DHT22;13988;52.446;13.280;2023-07-13T04:53:04;17.60;99.90
26262;DHT22;13988;52.446;13.280;2023-07-13T04:55:31;17.70;99.90
26262;DHT22;13988;52.446;13.280;2023-07-13T04:57:57;17.80;99.90
26262;DHT22;13988;52.446;13.280;2023-07-13T05:00:24;17.80;99.90
26262;DHT22;13988;52.446;13.280;2023-07-13T05:02:50;17.80;99.90
26262;DHT22;13988;52.446;13.280;2023-07-13T05:05:16;17.90;99.90
26262;DHT22;13988;52.446;13.280;2023-07-13T05:07:42;17.90;99.90
26262;DHT22;13988;52.446;13.280;2023-07-13T05:10:09;17.80;99.90
26262;DHT22;13988;52.446;13.280;2023-07-13T05:12:35;17.80;99.90
26262;DHT22;13988;52.446;13.280;2023-07-13T05:15:01;17.90;99.90
26262;DHT22;13988;52.446;13.280;2023-07-13T05:17:27;18.00;99.90
26262;DHT22;13988;52.446;13.280;2023-07-13T05:19:52;18.10;99.90
26262;DHT22;13988;52.446;13.280;2023-07-13T05:22:18;18.10;99.90
26262;DHT22;13988;52.446;13.280;2023-07-13T05:24:44;18.20;99.90
26262;DHT22;13988;52.446;13.280;2023-07-13T05:27:09;18.20;99.90
26262;DHT22;13988;52.446;13.280;2023-07-13T05:29:35;18.20;99.90
26262;DHT22;13988;52.446;13.280;2023-07-13T05:32:01;18.30;99.90
26262;DHT22;13988;52.446;13.280;2023-07-13T05:34:26;18.50;99.90
26262;DHT22;13988;52.446;13.280;2023-07-13T05:36:52;18.70;99.90
26262;DHT22;13988;52.446;13.280;2023-07-13T05:39:18;18.70;99.90
26262;DHT22;13988;52.446;13.280;2023-07-13T05:41:44;18.70;99.90
26262;DHT22;13988;52.446;13.280;2023-07-13T05:44:10;18.80;99.90
26262;DHT22;13988;52.446;13.280;2023-07-13T05:46:35;18.80;99.90
26262;DHT22;13988;52.446;13.280;2023-07-13T05:49:01;18.70;99.90
26262;DHT22;13988;52.446;13.280;2023-07-13T05:51:27;18.80;99.90
26262;DHT22;13988;52.446;13.280;2023-07-13T05:53:52;18.90;99.90
26262;DHT22;13988;52.446;13.280;2023-07-13T05:56:18;19.10;99.90
26262;DHT22;13988;52.446;13.280;2023-07-13T05:58:44;19.20;99.90
26262;DHT22;13988;52.446;13.280;2023-07-13T06:01:12;19.30;99.90
26262;DHT22;13988;52.446;13.280;2023-07-13T06:03:38;19.30;99.90
26262;DHT22;13988;52.446;13.280;2023-07-13T06:06:05;19.50;99.90
26262;DHT22;13988;52.446;13.280;2023-07-13T06:08:31;19.60;99.90
26262;DHT22;13988;52.446;13.280;2023-07-13T06:11:10;19.80;99.90
26262;DHT22;13988;52.446;13.280;2023-07-13T06:13:37;20.00;99.90
26262;DHT22;13988;52.446;13.280;2023-07-13T06:16:03;20.30;99.90
26262;DHT22;13988;52.446;13.280;2023-07-13T06:18:30;21.10;99.90
26262;DHT22;13988;52.446;13.280;2023-07-13T06:20:57;21.90;99.90
26262;DHT22;13988;52.446;13.280;2023-07-13T06:23:23;22.60;99.90
26262;DHT22;13988;52.446;13.280;2023-07-13T06:25:48;22.70;99.90
26262;DHT22;13988;52.446;13.280;2023-07-13T06:28:14;23.10;99.90
26262;DHT22;13988;52.446;13.280;2023-07-13T06:30:39;24.20;99.90
26262;DHT22;13988;52.446;13.280;2023-07-13T06:33:05;23.90;99.90
26262;DHT22;13988;52.446;13.280;2023-07-13T06:35:31;24.60;99.90
26262;DHT22;13988;52.446;13.280;2023-07-13T06:37:56;25.00;99.90
26262;DHT22;13988;52.446;13.280;2023-07-13T06:40:22;24.90;99.90
26262;DHT22;13988;52.446;13.280;2023-07-13T06:42:48;24.60;99.90
26262;DHT22;13988;52.446;13.280;2023-07-13T06:45:13;24.40;99.90
26262;DHT22;13988;52.446;13.280;2023-07-13T06:47:39;24.40;99.90
26262;DHT22;13988;52.446;13.280;2023-07-13T06:50:05;24.40;99.90
26262;DHT22;13988;52.446;13.280;2023-07-13T06:52:31;24.90;99.90
26262;DHT22;13988;52.446;13.280;2023-07-13T06:54:56;24.60;99.90
26262;DHT22;13988;52.446;13.280;2023-07-13T06:57:22;24.80;99.90
26262;DHT22;13988;52.446;13.280;2023-07-13T06:59:48;25.20;99.90
26262;DHT22;13988;52.446;13.280;2023-07-13T07:02:13;26.10;99.90
26262;DHT22;13988;52.446;13.280;2023-07-13T07:04:39;25.90;99.90
26262;DHT22;13988;52.446;13.280;2023-07-13T07:07:05;26.20;99.90
26262;DHT22;13988;52.446;13.280;2023-07-13T07:09:30;26.50;99.90
26262;DHT22;13988;52.446;13.280;2023-07-13T07:11:57;26.80;99.90
26262;DHT22;13988;52.446;13.280;2023-07-13T07:14:22;27.00;99.20
26262;DHT22;13988;52.446;13.280;2023-07-13T07:16:49;26.70;99.90
26262;DHT22;13988;52.446;13.280;2023-07-13T07:19:15;26.30;99.90
26262;DHT22;13988;52.446;13.280;2023-07-13T07:21:41;27.10;99.90
26262;DHT22;13988;52.446;13.280;2023-07-13T07:24:07;27.70;98.00
26262;DHT22;13988;52.446;13.280;2023-07-13T07:26:33;26.70;99.90
26262;DHT22;13988;52.446;13.280;2023-07-13T07:28:58;27.40;99.90
26262;DHT22;13988;52.446;13.280;2023-07-13T07:31:24;27.70;98.40
26262;DHT22;13988;52.446;13.280;2023-07-13T07:33:50;27.20;96.00
26262;DHT22;13988;52.446;13.280;2023-07-13T07:36:16;28.00;96.40
26262;DHT22;13988;52.446;13.280;2023-07-13T07:38:43;26.70;99.90
26262;DHT22;13988;52.446;13.280;2023-07-13T07:41:09;26.30;97.50
26262;DHT22;13988;52.446;13.280;2023-07-13T07:43:35;25.60;99.10
26262;DHT22;13988;52.446;13.280;2023-07-13T07:46:00;24.40;99.90
26262;DHT22;13988;52.446;13.280;2023-07-13T07:48:26;23.80;99.90
26262;DHT22;13988;52.446;13.280;2023-07-13T07:50:52;23.20;99.90
26262;DHT22;13988;52.446;13.280;2023-07-13T07:53:17;23.20;99.90
26262;DHT22;13988;52.446;13.280;2023-07-13T07:55:43;23.00;99.90
26262;DHT22;13988;52.446;13.280;2023-07-13T07:58:09;22.90;99.90
26262;DHT22;13988;52.446;13.280;2023-07-13T08:00:34;22.80;99.90
26262;DHT22;13988;52.446;13.280;2023-07-13T08:03:00;22.80;99.90
26262;DHT22;13988;52.446;13.280;2023-07-13T08:05:26;22.80;99.90
26262;DHT22;13988;52.446;13.280;2023-07-13T08:07:52;23.40;99.90
26262;DHT22;13988;52.446;13.280;2023-07-13T08:10:18;23.80;99.90
26262;DHT22;13988;52.446;13.280;2023-07-13T08:12:43;24.00;99.90
26262;DHT22;13988;52.446;13.280;2023-07-13T08:15:12;24.00;99.90
26262;DHT22;13988;52.446;13.280;2023-07-13T08:17:38;23.70;99.90
26262;DHT22;13988;52.446;13.280;2023-07-13T08:20:04;23.00;99.90
26262;DHT22;13988;52.446;13.280;2023-07-13T08:22:30;22.90;99.90
26262;DHT22;13988;52.446;13.280;2023-07-13T08:24:55;23.20;99.90
26262;DHT22;13988;52.446;13.280;2023-07-13T08:27:22;23.00;99.90
26262;DHT22;13988;52.446;13.280;2023-07-13T08:29:49;22.70;99.90
26262;DHT22;13988;52.446;13.280;2023-07-13T08:32:15;23.10;99.90
26262;DHT22;13988;52.446;13.280;2023-07-13T08:34:40;23.20;99.90
26262;DHT22;13988;52.446;13.280;2023-07-13T08:37:08;22.60;99.90
26262;DHT22;13988;52.446;13.280;2023-07-13T08:39:34;22.80;99.90
26262;DHT22;13988;52.446;13.280;2023-07-13T08:42:07;22.50;99.90
26262;DHT22;13988;52.446;13.280;2023-07-13T08:47:17;22.80;99.90
26262;DHT22;13988;52.446;13.280;2023-07-13T08:49:46;22.80;99.90
26262;DHT22;13988;52.446;13.280;2023-07-13T08:54:58;23.40;99.90
26262;DHT22;13988;52.446;13.280;2023-07-13T08:57:31;23.10;99.90
26262;DHT22;13988;52.446;13.280;2023-07-13T08:59:58;23.00;99.90
26262;DHT22;13988;52.446;13.280;2023-07-13T09:04:59;23.20;99.90
26262;DHT22;13988;52.446;13.280;2023-07-13T09:10:47;23.50;99.90
26262;DHT22;13988;52.446;13.280;2023-07-13T09:15:53;23.70;99.90
26262;DHT22;13988;52.446;13.280;2023-07-13T09:18:21;23.50;99.90
26262;DHT22;13988;52.446;13.280;2023-07-13T09:20:52;23.50;99.90
26262;DHT22;13988;52.446;13.280;2023-07-13T09:23:22;23.60;99.90
26262;DHT22;13988;52.446;13.280;2023-07-13T09:25:53;23.10;99.90
26262;DHT22;13988;52.446;13.280;2023-07-13T09:28:28;23.30;99.90
26262;DHT22;13988;52.446;13.280;2023-07-13T09:33:29;23.00;99.90
26262;DHT22;13988;52.446;13.280;2023-07-13T09:35:59;22.70;99.90
26262;DHT22;13988;52.446;13.280;2023-07-13T09:38:27;22.60;99.90
26262;DHT22;13988;52.446;13.280;2023-07-13T09:43:25;23.30;99.90
26262;DHT22;13988;52.446;13.280;2023-07-13T09:45:54;23.30;99.90
26262;DHT22;13988;52.446;13.280;2023-07-13T09:48:19;23.10;99.90
26262;DHT22;13988;52.446;13.280;2023-07-13T09:50:45;23.00;99.90
26262;DHT22;13988;52.446;13.280;2023-07-13T09:53:18;23.20;99.90
26262;DHT22;13988;52.446;13.280;2023-07-13T09:55:48;23.00;99.90
26262;DHT22;13988;52.446;13.280;2023-07-13T09:58:24;23.00;99.90
26262;DHT22;13988;52.446;13.280;2023-07-13T10:01:01;23.30;99.90
26262;DHT22;13988;52.446;13.280;2023-07-13T10:03:35;23.60;99.90
26262;DHT22;13988;52.446;13.280;2023-07-13T10:06:14;23.50;98.90
26262;DHT22;13988;52.446;13.280;2023-07-13T10:08:39;23.60;99.90
26262;DHT22;13988;52.446;13.280;2023-07-13T10:11:21;24.00;99.90
26262;DHT22;13988;52.446;13.280;2023-07-13T10:14:01;24.40;98.20
26262;DHT22;13988;52.446;13.280;2023-07-13T10:16:33;24.30;99.00
26262;DHT22;13988;52.446;13.280;2023-07-13T10:19:02;23.90;96.20
26262;DHT22;13988;52.446;13.280;2023-07-13T10:21:34;23.80;98.20
26262;DHT22;13988;52.446;13.280;2023-07-13T10:24:13;23.90;98.50
26262;DHT22;13988;52.446;13.280;2023-07-13T10:26:52;24.10;97.40
26262;DHT22;13988;52.446;13.280;2023-07-13T10:29:20;24.00;97.80
26262;DHT22;13988;52.446;13.280;2023-07-13T10:31:47;24.00;98.20
26262;DHT22;13988;52.446;13.280;2023-07-13T10:34:13;23.70;97.50
26262;DHT22;13988;52.446;13.280;2023-07-13T10:36:43;23.60;96.90
26262;DHT22;13988;52.446;13.280;2023-07-13T10:39:20;24.00;96.80
26262;DHT22;13988;52.446;13.280;2023-07-13T10:42:08;24.30;96.90
26262;DHT22;13988;52.446;13.280;2023-07-13T10:44:37;24.60;94.20
26262;DHT22;13988;52.446;13.280;2023-07-13T10:47:15;24.80;91.50
26262;DHT22;13988;52.446;13.280;2023-07-13T10:49:43;24.70;93.20
26262;DHT22;13988;52.446;13.280;2023-07-13T10:52:41;24.60;92.80
26262;DHT22;13988;52.446;13.280;2023-07-13T10:58:00;24.80;83.80
26262;DHT22;13988;52.446;13.280;2023-07-13T11:00:26;24.60;84.60
26262;DHT22;13988;52.446;13.280;2023-07-13T11:02:57;25.00;80.80
26262;DHT22;13988;52.446;13.280;2023-07-13T11:07:56;25.20;72.60
26262;DHT22;13988;52.446;13.280;2023-07-13T11:10:53;25.50;72.90
26262;DHT22;13988;52.446;13.280;2023-07-13T11:18:52;26.30;75.70
26262;DHT22;13988;52.446;13.280;2023-07-13T11:21:23;26.30;79.20
26262;DHT22;13988;52.446;13.280;2023-07-13T11:31:51;27.00;73.60
26262;DHT22;13988;52.446;13.280;2023-07-13T11:34:40;26.50;75.60
26262;DHT22;13988;52.446;13.280;2023-07-13T11:37:12;26.50;79.20
26262;DHT22;13988;52.446;13.280;2023-07-13T11:39:42;25.90;74.90
26262;DHT22;13988;52.446;13.280;2023-07-13T11:42:13;26.30;71.10
26262;DHT22;13988;52.446;13.280;2023-07-13T11:44:45;26.50;71.20
26262;DHT22;13988;52.446;13.280;2023-07-13T11:47:17;27.50;68.10
26262;DHT22;13988;52.446;13.280;2023-07-13T11:49:45;26.70;68.10
26262;DHT22;13988;52.446;13.280;2023-07-13T11:52:16;27.10;69.40
26262;DHT22;13988;52.446;13.280;2023-07-13T11:54:51;27.10;70.30
26262;DHT22;13988;52.446;13.280;2023-07-13T11:57:32;27.30;68.90
26262;DHT22;13988;52.446;13.280;2023-07-13T12:00:03;27.80;66.40
26262;DHT22;13988;52.446;13.280;2023-07-13T12:02:33;28.00;65.20
26262;DHT22;13988;52.446;13.280;2023-07-13T12:05:02;27.40;66.40
26262;DHT22;13988;52.446;13.280;2023-07-13T12:07:31;27.70;65.30
26262;DHT22;13988;52.446;13.280;2023-07-13T12:10:24;27.10;67.20
26262;DHT22;13988;52.446;13.280;2023-07-13T12:12:56;27.40;64.70
26262;DHT22;13988;52.446;13.280;2023-07-13T12:15:27;27.50;64.20
26262;DHT22;13988;52.446;13.280;2023-07-13T12:17:53;28.00;63.00
26262;DHT22;13988;52.446;13.280;2023-07-13T12:20:37;27.70;65.90
26262;DHT22;13988;52.446;13.280;2023-07-13T12:23:06;27.40;66.10
26262;DHT22;13988;52.446;13.280;2023-07-13T12:25:37;27.50;68.40
26262;DHT22;13988;52.446;13.280;2023-07-13T12:28:20;27.90;67.70
26262;DHT22;13988;52.446;13.280;2023-07-13T12:30:48;27.90;69.60
26262;DHT22;13988;52.446;13.280;2023-07-13T12:33:14;27.30;68.10
26262;DHT22;13988;52.446;13.280;2023-07-13T12:35:42;28.00;69.80
26262;DHT22;13988;52.446;13.280;2023-07-13T12:38:11;28.30;66.90
26262;DHT22;13988;52.446;13.280;2023-07-13T12:40:37;28.40;64.20
26262;DHT22;13988;52.446;13.280;2023-07-13T12:43:13;28.30;64.90
26262;DHT22;13988;52.446;13.280;2023-07-13T12:45:39;27.80;64.20
26262;DHT22;13988;52.446;13.280;2023-07-13T12:48:20;27.60;66.40
26262;DHT22;13988;52.446;13.280;2023-07-13T12:50:47;27.60;66.70
26262;DHT22;13988;52.446;13.280;2023-07-13T12:53:16;27.90;61.60
26262;DHT22;13988;52.446;13.280;2023-07-13T12:55:53;27.80;62.10
26262;DHT22;13988;52.446;13.280;2023-07-13T12:58:36;27.80;62.00
26262;DHT22;13988;52.446;13.280;2023-07-13T13:01:04;27.40;65.50
26262;DHT22;13988;52.446;13.280;2023-07-13T13:03:37;26.70;65.90
26262;DHT22;13988;52.446;13.280;2023-07-13T13:08:41;26.90;68.90
26262;DHT22;13988;52.446;13.280;2023-07-13T13:11:09;27.00;65.20
26262;DHT22;13988;52.446;13.280;2023-07-13T13:13:35;27.60;64.10
26262;DHT22;13988;52.446;13.280;2023-07-13T13:16:33;27.10;63.00
26262;DHT22;13988;52.446;13.280;2023-07-13T13:19:20;25.80;66.80
26262;DHT22;13988;52.446;13.280;2023-07-13T13:21:48;25.80;66.70
26262;DHT22;13988;52.446;13.280;2023-07-13T13:24:20;26.40;66.40
26262;DHT22;13988;52.446;13.280;2023-07-13T13:26:46;26.20;68.50
26262;DHT22;13988;52.446;13.280;2023-07-13T13:29:21;26.90;64.40
26262;DHT22;13988;52.446;13.280;2023-07-13T13:31:49;27.00;64.00
26262;DHT22;13988;52.446;13.280;2023-07-13T13:34:17;26.80;62.60
26262;DHT22;13988;52.446;13.280;2023-07-13T13:36:43;26.90;63.50
26262;DHT22;13988;52.446;13.280;2023-07-13T13:39:29;27.60;63.80
26262;DHT22;13988;52.446;13.280;2023-07-13T13:41:56;28.20;62.50
26262;DHT22;13988;52.446;13.280;2023-07-13T13:44:22;28.20;60.80
26262;DHT22;13988;52.446;13.280;2023-07-13T13:46:50;27.40;61.20
26262;DHT22;13988;52.446;13.280;2023-07-13T13:49:26;26.10;62.90
26262;DHT22;13988;52.446;13.280;2023-07-13T13:51:53;26.00;66.90
26262;DHT22;13988;52.446;13.280;2023-07-13T13:54:20;26.40;65.60
26262;DHT22;13988;52.446;13.280;2023-07-13T13:56:49;27.10;65.60
26262;DHT22;13988;52.446;13.280;2023-07-13T13:59:15;27.50;65.00
26262;DHT22;13988;52.446;13.280;2023-07-13T14:01:42;27.00;64.30
26262;DHT22;13988;52.446;13.280;2023-07-13T14:04:14;26.70;62.80
26262;DHT22;13988;52.446;13.280;2023-07-13T14:06:41;26.80;64.80
26262;DHT22;13988;52.446;13.280;2023-07-13T14:09:11;27.00;61.20
26262;DHT22;13988;52.446;13.280;2023-07-13T14:11:37;26.60;61.00
26262;DHT22;13988;52.446;13.280;2023-07-13T14:14:02;26.20;61.40
26262;DHT22;13988;52.446;13.280;2023-07-13T14:16:31;26.20;60.60
26262;DHT22;13988;52.446;13.280;2023-07-13T14:18:58;26.40;60.60
26262;DHT22;13988;52.446;13.280;2023-07-13T14:21:27;26.90;59.90
26262;DHT22;13988;52.446;13.280;2023-07-13T14:23:53;26.80;60.00
26262;DHT22;13988;52.446;13.280;2023-07-13T14:26:21;26.90;60.90
26262;DHT22;13988;52.446;13.280;2023-07-13T14:28:50;26.20;62.40
26262;DHT22;13988;52.446;13.280;2023-07-13T14:31:17;26.20;63.70
26262;DHT22;13988;52.446;13.280;2023-07-13T14:33:44;26.40;65.30
26262;DHT22;13988;52.446;13.280;2023-07-13T14:38:50;26.90;62.80
26262;DHT22;13988;52.446;13.280;2023-07-13T14:41:16;26.20;63.20
26262;DHT22;13988;52.446;13.280;2023-07-13T14:43:41;26.60;65.80
26262;DHT22;13988;52.446;13.280;2023-07-13T14:46:24;26.80;61.60
26262;DHT22;13988;52.446;13.280;2023-07-13T14:48:54;26.10;61.30
26262;DHT22;13988;52.446;13.280;2023-07-13T14:51:24;26.30;62.70
26262;DHT22;13988;52.446;13.280;2023-07-13T14:53:50;26.30;61.40
26262;DHT22;13988;52.446;13.280;2023-07-13T14:56:16;26.20;59.70
26262;DHT22;13988;52.446;13.280;2023-07-13T14:58:42;26.10;61.80
26262;DHT22;13988;52.446;13.280;2023-07-13T15:01:15;26.10;61.30
26262;DHT22;13988;52.446;13.280;2023-07-13T15:03:45;26.30;62.20
26262;DHT22;13988;52.446;13.280;2023-07-13T15:06:12;26.30;60.40
26262;DHT22;13988;52.446;13.280;2023-07-13T15:08:38;26.60;63.00
26262;DHT22;13988;52.446;13.280;2023-07-13T15:11:04;26.80;60.60
26262;DHT22;13988;52.446;13.280;2023-07-13T15:13:30;26.90;60.60
26262;DHT22;13988;52.446;13.280;2023-07-13T15:15:56;26.80;59.40
26262;DHT22;13988;52.446;13.280;2023-07-13T15:18:23;26.40;61.30
26262;DHT22;13988;52.446;13.280;2023-07-13T15:20:51;26.60;62.40
26262;DHT22;13988;52.446;13.280;2023-07-13T15:23:18;26.60;59.90
26262;DHT22;13988;52.446;13.280;2023-07-13T15:25:45;26.70;59.10
26262;DHT22;13988;52.446;13.280;2023-07-13T15:28:11;26.60;57.60
26262;DHT22;13988;52.446;13.280;2023-07-13T15:30:41;26.50;57.50
26262;DHT22;13988;52.446;13.280;2023-07-13T15:33:20;26.40;57.10
26262;DHT22;13988;52.446;13.280;2023-07-13T15:35:47;26.20;58.90
26262;DHT22;13988;52.446;13.280;2023-07-13T15:38:17;26.40;59.40
26262;DHT22;13988;52.446;13.280;2023-07-13T15:40:43;26.20;60.40
26262;DHT22;13988;52.446;13.280;2023-07-13T15:43:12;26.20;59.40
26262;DHT22;13988;52.446;13.280;2023-07-13T15:45:39;26.10;60.80
26262;DHT22;13988;52.446;13.280;2023-07-13T15:48:16;26.10;59.80
26262;DHT22;13988;52.446;13.280;2023-07-13T15:50:54;26.10;62.30
26262;DHT22;13988;52.446;13.280;2023-07-13T15:53:31;26.10;61.00
26262;DHT22;13988;52.446;13.280;2023-07-13T15:55:57;26.10;62.80
26262;DHT22;13988;52.446;13.280;2023-07-13T15:58:24;25.90;62.60
26262;DHT22;13988;52.446;13.280;2023-07-13T16:00:51;25.90;63.10
26262;DHT22;13988;52.446;13.280;2023-07-13T16:03:21;26.10;62.70
26262;DHT22;13988;52.446;13.280;2023-07-13T16:05:48;25.80;62.00
26262;DHT22;13988;52.446;13.280;2023-07-13T16:08:26;25.90;62.50